sensor_id;sensor_type;location;lat;lon;timestamp;P1;durP1;ratioP1;P2;durP2;ratioP2
4569;SDS011;2297;51.442;6.996;2023-04-01T00:01:14;3.55;;;1.42;;
4569;SDS011;2297;51.442;6.996;2023-04-01T00:03:41;3.63;;;1.60;;
4569;SDS011;2297;51.442;6.996;2023-04-01T00:06:08;4.00;;;1.40;;
4569;SDS011;2297;51.442;6.996;2023-04-01T00:08:37;2.75;;;1.42;;
4569;SDS011;2297;51.442;6.996;2023-04-01T00:11:04;5.95;;;2.40;;
4569;SDS011;2297;51.442;6.996;2023-04-01T00:13:30;4.28;;;2.13;;
4569;SDS011;2297;51.442;6.996;2023-04-01T00:15:58;3.22;;;1.45;;
4569;SDS011;2297;51.442;6.996;2023-04-01T00:18:26;3.47;;;1.40;;
4569;SDS011;2297;51.442;6.996;2023-04-01T00:20:53;2.17;;;1.20;;
4569;SDS011;2297;51.442;6.996;2023-04-01T00:23:20;8.15;;;2.67;;
4569;SDS011;2297;51.442;6.996;2023-04-01T00:25:47;4.90;;;1.40;;
4569;SDS011;2297;51.442;6.996;2023-04-01T00:28:14;7.55;;;1.27;;
4569;SDS011;2297;51.442;6.996;2023-04-01T00:30:41;2.38;;;1.30;;
4569;SDS011;2297;51.442;6.996;2023-04-01T00:33:09;4.45;;;1.70;;
4569;SDS011;2297;51.442;6.996;2023-04-01T00:35:36;3.45;;;1.50;;
4569;SDS011;2297;51.442;6.996;2023-04-01T00:38:03;3.08;;;1.27;;
4569;SDS011;2297;51.442;6.996;2023-04-01T00:40:32;4.40;;;1.25;;
4569;SDS011;2297;51.442;6.996;2023-04-01T00:43:01;2.53;;;1.20;;
4569;SDS011;2297;51.442;6.996;2023-04-01T00:45:31;3.80;;;1.40;;
4569;SDS011;2297;51.442;6.996;2023-04-01T00:48:01;1.73;;;1.40;;
4569;SDS011;2297;51.442;6.996;2023-04-01T00:50:33;3.03;;;1.40;;
4569;SDS011;2297;51.442;6.996;2023-04-01T00:53:00;3.15;;;1.33;;
4569;SDS011;2297;51.442;6.996;2023-04-01T00:55:29;1.83;;;1.20;;
4569;SDS011;2297;51.442;6.996;2023-04-01T00:57:58;1.95;;;1.00;;
4569;SDS011;2297;51.442;6.996;2023-04-01T01:00:28;4.00;;;1.33;;
4569;SDS011;2297;51.442;6.996;2023-04-01T01:02:54;2.50;;;1.10;;
4569;SDS011;2297;51.442;6.996;2023-04-01T01:05:22;3.10;;;1.02;;
4569;SDS011;2297;51.442;6.996;2023-04-01T01:07:58;3.28;;;1.10;;
4569;SDS011;2297;51.442;6.996;2023-04-01T01:10:29;1.55;;;1.13;;
4569;SDS011;2297;51.442;6.996;2023-04-01T01:13:00;2.67;;;0.98;;
4569;SDS011;2297;51.442;6.996;2023-04-01T01:15:37;4.55;;;1.10;;
4569;SDS011;2297;51.442;6.996;2023-04-01T01:18:14;4.30;;;1.20;;
4569;SDS011;2297;51.442;6.996;2023-04-01T01:20:55;2.40;;;1.20;;
4569;SDS011;2297;51.442;6.996;2023-04-01T01:26:54;2.97;;;1.30;;
4569;SDS011;2297;51.442;6.996;2023-04-01T01:29:49;2.95;;;1.40;;
4569;SDS011;2297;51.442;6.996;2023-04-01T01:35:48;2.88;;;1.20;;
4569;SDS011;2297;51.442;6.996;2023-04-01T01:38:16;2.25;;;1.23;;
4569;SDS011;2297;51.442;6.996;2023-04-01T01:40:45;1.73;;;1.00;;
4569;SDS011;2297;51.442;6.996;2023-04-01T01:43:17;2.35;;;1.20;;
4569;SDS011;2297;51.442;6.996;2023-04-01T01:49:08;1.95;;;1.20;;
4569;SDS011;2297;51.442;6.996;2023-04-01T01:51:38;3.42;;;1.35;;
4569;SDS011;2297;51.442;6.996;2023-04-01T01:54:05;4.28;;;1.23;;
4569;SDS011;2297;51.442;6.996;2023-04-01T01:56:31;2.83;;;1.10;;
4569;SDS011;2297;51.442;6.996;2023-04-01T01:59:01;4.13;;;1.17;;
4569;SDS011;2297;51.442;6.996;2023-04-01T02:01:32;3.90;;;1.10;;
4569;SDS011;2297;51.442;6.996;2023-04-01T02:04:03;1.67;;;1.00;;
4569;SDS011;2297;51.442;6.996;2023-04-01T02:06:32;4.00;;;1.58;;
4569;SDS011;2297;51.442;6.996;2023-04-01T02:09:05;4.05;;;1.13;;
4569;SDS011;2297;51.442;6.996;2023-04-01T02:11:36;1.27;;;1.00;;
4569;SDS011;2297;51.442;6.996;2023-04-01T02:14:09;2.67;;;1.20;;
4569;SDS011;2297;51.442;6.996;2023-04-01T02:16:40;3.30;;;1.20;;
4569;SDS011;2297;51.442;6.996;2023-04-01T02:19:13;2.83;;;1.27;;
4569;SDS011;2297;51.442;6.996;2023-04-01T02:21:47;1.33;;;1.02;;
4569;SDS011;2297;51.442;6.996;2023-04-01T02:24:19;3.40;;;1.10;;
4569;SDS011;2297;51.442;6.996;2023-04-01T02:26:47;2.30;;;1.27;;
4569;SDS011;2297;51.442;6.996;2023-04-01T02:29:16;2.90;;;1.10;;
4569;SDS011;2297;51.442;6.996;2023-04-01T02:31:44;2.17;;;1.33;;
4569;SDS011;2297;51.442;6.996;2023-04-01T02:34:11;2.65;;;1.15;;
4569;SDS011;2297;51.442;6.996;2023-04-01T02:36:39;3.03;;;1.17;;
4569;SDS011;2297;51.442;6.996;2023-04-01T02:39:05;2.75;;;1.30;;
4569;SDS011;2297;51.442;6.996;2023-04-01T02:41:39;1.45;;;1.10;;
4569;SDS011;2297;51.442;6.996;2023-04-01T02:44:06;2.63;;;1.20;;
4569;SDS011;2297;51.442;6.996;2023-04-01T02:46:33;2.25;;;1.40;;
4569;SDS011;2297;51.442;6.996;2023-04-01T02:49:00;4.75;;;1.45;;
4569;SDS011;2297;51.442;6.996;2023-04-01T02:51:27;3.03;;;1.30;;
4569;SDS011;2297;51.442;6.996;2023-04-01T02:53:53;2.25;;;1.48;;
4569;SDS011;2297;51.442;6.996;2023-04-01T02:56:20;3.03;;;1.20;;
4569;SDS011;2297;51.442;6.996;2023-04-01T02:58:48;4.68;;;1.40;;
4569;SDS011;2297;51.442;6.996;2023-04-01T03:01:15;1.65;;;1.10;;
4569;SDS011;2297;51.442;6.996;2023-04-01T03:03:42;1.98;;;1.27;;
4569;SDS011;2297;51.442;6.996;2023-04-01T03:06:09;3.22;;;1.30;;
4569;SDS011;2297;51.442;6.996;2023-04-01T03:08:37;4.47;;;1.35;;
4569;SDS011;2297;51.442;6.996;2023-04-01T03:11:04;2.40;;;1.20;;
4569;SDS011;2297;51.442;6.996;2023-04-01T03:13:31;2.00;;;1.30;;
4569;SDS011;2297;51.442;6.996;2023-04-01T03:15:59;2.35;;;1.17;;
4569;SDS011;2297;51.442;6.996;2023-04-01T03:18:26;2.83;;;1.42;;
4569;SDS011;2297;51.442;6.996;2023-04-01T03:20:53;2.97;;;1.52;;
4569;SDS011;2297;51.442;6.996;2023-04-01T03:23:19;2.80;;;1.30;;
4569;SDS011;2297;51.442;6.996;2023-04-01T03:25:46;3.35;;;1.27;;
4569;SDS011;2297;51.442;6.996;2023-04-01T03:28:13;1.38;;;1.23;;
4569;SDS011;2297;51.442;6.996;2023-04-01T03:30:40;2.28;;;1.40;;
4569;SDS011;2297;51.442;6.996;2023-04-01T03:33:08;1.48;;;1.17;;
4569;SDS011;2297;51.442;6.996;2023-04-01T03:35:35;4.30;;;1.20;;
4569;SDS011;2297;51.442;6.996;2023-04-01T03:38:14;3.13;;;1.30;;
4569;SDS011;2297;51.442;6.996;2023-04-01T03:40:41;1.38;;;1.20;;
4569;SDS011;2297;51.442;6.996;2023-04-01T03:43:08;3.10;;;1.35;;
4569;SDS011;2297;51.442;6.996;2023-04-01T03:45:35;2.60;;;1.30;;
4569;SDS011;2297;51.442;6.996;2023-04-01T03:48:01;6.10;;;1.50;;
4569;SDS011;2297;51.442;6.996;2023-04-01T03:50:29;1.73;;;1.40;;
4569;SDS011;2297;51.442;6.996;2023-04-01T03:52:56;3.08;;;1.40;;
4569;SDS011;2297;51.442;6.996;2023-04-01T03:55:22;3.83;;;1.50;;
4569;SDS011;2297;51.442;6.996;2023-04-01T03:57:49;2.33;;;1.23;;
4569;SDS011;2297;51.442;6.996;2023-04-01T04:00:16;2.20;;;1.50;;
4569;SDS011;2297;51.442;6.996;2023-04-01T04:02:43;2.20;;;1.35;;
4569;SDS011;2297;51.442;6.996;2023-04-01T04:05:09;2.90;;;1.50;;
4569;SDS011;2297;51.442;6.996;2023-04-01T04:07:37;2.33;;;1.45;;
4569;SDS011;2297;51.442;6.996;2023-04-01T04:10:05;2.67;;;1.75;;
4569;SDS011;2297;51.442;6.996;2023-04-01T04:12:32;2.45;;;1.55;;
4569;SDS011;2297;51.442;6.996;2023-04-01T04:14:59;2.28;;;1.33;;
4569;SDS011;2297;51.442;6.996;2023-04-01T04:17:26;2.03;;;1.50;;
4569;SDS011;2297;51.442;6.996;2023-04-01T04:19:52;1.63;;;1.40;;
4569;SDS011;2297;51.442;6.996;2023-04-01T04:22:19;1.60;;;1.50;;
4569;SDS011;2297;51.442;6.996;2023-04-01T04:24:47;3.25;;;1.75;;
4569;SDS011;2297;51.442;6.996;2023-04-01T04:27:13;3.42;;;1.60;;
4569;SDS011;2297;51.442;6.996;2023-04-01T04:29:40;1.50;;;1.25;;
4569;SDS011;2297;51.442;6.996;2023-04-01T04:32:10;3.50;;;1.75;;
4569;SDS011;2297;51.442;6.996;2023-04-01T04:34:36;1.80;;;1.38;;
4569;SDS011;2297;51.442;6.996;2023-04-01T04:37:03;1.40;;;1.30;;
4569;SDS011;2297;51.442;6.996;2023-04-01T04:39:30;2.53;;;1.38;;
4569;SDS011;2297;51.442;6.996;2023-04-01T04:41:58;3.20;;;1.50;;
4569;SDS011;2297;51.442;6.996;2023-04-01T04:44:24;3.53;;;1.40;;
4569;SDS011;2297;51.442;6.996;2023-04-01T04:46:51;4.30;;;1.70;;
4569;SDS011;2297;51.442;6.996;2023-04-01T04:49:21;1.88;;;1.50;;
4569;SDS011;2297;51.442;6.996;2023-04-01T04:51:47;2.70;;;1.50;;
4569;SDS011;2297;51.442;6.996;2023-04-01T04:54:23;1.63;;;1.40;;
4569;SDS011;2297;51.442;6.996;2023-04-01T04:56:50;3.72;;;1.63;;
4569;SDS011;2297;51.442;6.996;2023-04-01T04:59:18;1.83;;;1.60;;
4569;SDS011;2297;51.442;6.996;2023-04-01T05:01:45;2.30;;;1.90;;
4569;SDS011;2297;51.442;6.996;2023-04-01T05:04:13;3.78;;;1.60;;
4569;SDS011;2297;51.442;6.996;2023-04-01T05:06:40;1.88;;;1.50;;
4569;SDS011;2297;51.442;6.996;2023-04-01T05:09:08;2.97;;;1.63;;
4569;SDS011;2297;51.442;6.996;2023-04-01T05:11:35;2.30;;;1.95;;
4569;SDS011;2297;51.442;6.996;2023-04-01T05:14:01;2.70;;;1.52;;
4569;SDS011;2297;51.442;6.996;2023-04-01T05:16:29;2.10;;;1.55;;
4569;SDS011;2297;51.442;6.996;2023-04-01T05:18:56;3.92;;;1.70;;
4569;SDS011;2297;51.442;6.996;2023-04-01T05:21:23;3.25;;;1.80;;
4569;SDS011;2297;51.442;6.996;2023-04-01T05:23:49;2.20;;;1.80;;
4569;SDS011;2297;51.442;6.996;2023-04-01T05:26:16;1.63;;;1.52;;
4569;SDS011;2297;51.442;6.996;2023-04-01T05:28:42;3.28;;;2.00;;
4569;SDS011;2297;51.442;6.996;2023-04-01T05:31:09;2.00;;;1.80;;
4569;SDS011;2297;51.442;6.996;2023-04-01T05:33:38;2.40;;;1.90;;
4569;SDS011;2297;51.442;6.996;2023-04-01T05:36:05;2.22;;;1.80;;
4569;SDS011;2297;51.442;6.996;2023-04-01T05:38:33;3.03;;;2.10;;
4569;SDS011;2297;51.442;6.996;2023-04-01T05:41:00;2.90;;;2.30;;
4569;SDS011;2297;51.442;6.996;2023-04-01T05:43:27;2.83;;;2.15;;
4569;SDS011;2297;51.442;6.996;2023-04-01T05:45:54;3.40;;;2.08;;
4569;SDS011;2297;51.442;6.996;2023-04-01T05:48:21;3.45;;;2.05;;
4569;SDS011;2297;51.442;6.996;2023-04-01T05:50:49;2.40;;;1.90;;
4569;SDS011;2297;51.442;6.996;2023-04-01T05:53:16;3.55;;;2.08;;
4569;SDS011;2297;51.442;6.996;2023-04-01T05:55:51;3.63;;;2.25;;
4569;SDS011;2297;51.442;6.996;2023-04-01T05:58:18;2.53;;;1.98;;
4569;SDS011;2297;51.442;6.996;2023-04-01T06:00:45;2.88;;;2.10;;
4569;SDS011;2297;51.442;6.996;2023-04-01T06:03:11;3.10;;;2.25;;
4569;SDS011;2297;51.442;6.996;2023-04-01T06:05:38;1.92;;;1.70;;
4569;SDS011;2297;51.442;6.996;2023-04-01T06:11:10;3.70;;;2.22;;
4569;SDS011;2297;51.442;6.996;2023-04-01T06:17:12;2.42;;;2.10;;
4569;SDS011;2297;51.442;6.996;2023-04-01T06:19:50;3.33;;;2.40;;
4569;SDS011;2297;51.442;6.996;2023-04-01T06:22:28;3.63;;;2.30;;
4569;SDS011;2297;51.442;6.996;2023-04-01T06:25:18;2.60;;;2.08;;
4569;SDS011;2297;51.442;6.996;2023-04-01T06:28:01;2.90;;;2.15;;
4569;SDS011;2297;51.442;6.996;2023-04-01T06:30:44;2.72;;;2.40;;
4569;SDS011;2297;51.442;6.996;2023-04-01T06:33:25;4.00;;;2.28;;
4569;SDS011;2297;51.442;6.996;2023-04-01T06:36:20;4.35;;;2.63;;
4569;SDS011;2297;51.442;6.996;2023-04-01T06:38:56;2.70;;;2.15;;
4569;SDS011;2297;51.442;6.996;2023-04-01T06:44:36;3.20;;;2.25;;
4569;SDS011;2297;51.442;6.996;2023-04-01T06:47:16;3.03;;;2.30;;
4569;SDS011;2297;51.442;6.996;2023-04-01T06:49:56;2.50;;;2.17;;
4569;SDS011;2297;51.442;6.996;2023-04-01T06:52:36;3.53;;;2.60;;
4569;SDS011;2297;51.442;6.996;2023-04-01T06:55:21;4.88;;;2.28;;
4569;SDS011;2297;51.442;6.996;2023-04-01T06:57:55;3.30;;;2.65;;
4569;SDS011;2297;51.442;6.996;2023-04-01T07:00:26;3.63;;;2.10;;
4569;SDS011;2297;51.442;6.996;2023-04-01T07:02:59;2.75;;;2.28;;
4569;SDS011;2297;51.442;6.996;2023-04-01T07:05:33;2.55;;;2.13;;
4569;SDS011;2297;51.442;6.996;2023-04-01T07:08:01;3.28;;;2.35;;
4569;SDS011;2297;51.442;6.996;2023-04-01T07:10:33;3.70;;;2.50;;
4569;SDS011;2297;51.442;6.996;2023-04-01T07:13:10;2.53;;;1.90;;
4569;SDS011;2297;51.442;6.996;2023-04-01T07:15:42;3.25;;;2.17;;
4569;SDS011;2297;51.442;6.996;2023-04-01T07:18:23;2.88;;;2.25;;
4569;SDS011;2297;51.442;6.996;2023-04-01T07:20:58;2.33;;;2.13;;
4569;SDS011;2297;51.442;6.996;2023-04-01T07:23:28;3.15;;;2.28;;
4569;SDS011;2297;51.442;6.996;2023-04-01T07:25:58;3.55;;;1.98;;
4569;SDS011;2297;51.442;6.996;2023-04-01T07:28:29;2.72;;;2.10;;
4569;SDS011;2297;51.442;6.996;2023-04-01T07:31:01;2.88;;;2.10;;
4569;SDS011;2297;51.442;6.996;2023-04-01T07:33:39;3.40;;;2.40;;
4569;SDS011;2297;51.442;6.996;2023-04-01T07:36:13;5.63;;;3.10;;
4569;SDS011;2297;51.442;6.996;2023-04-01T07:38:50;3.78;;;3.00;;
4569;SDS011;2297;51.442;6.996;2023-04-01T07:41:27;4.35;;;3.45;;
4569;SDS011;2297;51.442;6.996;2023-04-01T07:44:07;4.60;;;3.35;;
4569;SDS011;2297;51.442;6.996;2023-04-01T07:46:45;3.55;;;3.15;;
4569;SDS011;2297;51.442;6.996;2023-04-01T07:49:26;3.83;;;2.95;;
4569;SDS011;2297;51.442;6.996;2023-04-01T07:52:01;4.43;;;3.33;;
4569;SDS011;2297;51.442;6.996;2023-04-01T07:54:37;4.07;;;3.10;;
4569;SDS011;2297;51.442;6.996;2023-04-01T07:57:08;3.63;;;3.10;;
4569;SDS011;2297;51.442;6.996;2023-04-01T07:59:42;4.30;;;3.50;;
4569;SDS011;2297;51.442;6.996;2023-04-01T08:02:21;4.38;;;3.80;;
4569;SDS011;2297;51.442;6.996;2023-04-01T08:04:57;4.82;;;4.05;;
4569;SDS011;2297;51.442;6.996;2023-04-01T08:07:33;5.68;;;4.07;;
4569;SDS011;2297;51.442;6.996;2023-04-01T08:10:08;5.35;;;4.28;;
4569;SDS011;2297;51.442;6.996;2023-04-01T08:12:41;6.20;;;4.65;;
4569;SDS011;2297;51.442;6.996;2023-04-01T08:15:39;6.55;;;4.82;;
4569;SDS011;2297;51.442;6.996;2023-04-01T08:20:50;7.70;;;4.95;;
4569;SDS011;2297;51.442;6.996;2023-04-01T08:23:21;7.15;;;5.57;;
4569;SDS011;2297;51.442;6.996;2023-04-01T08:25:51;7.05;;;5.07;;
4569;SDS011;2297;51.442;6.996;2023-04-01T08:28:23;6.63;;;4.97;;
4569;SDS011;2297;51.442;6.996;2023-04-01T08:30:58;6.80;;;5.15;;
4569;SDS011;2297;51.442;6.996;2023-04-01T08:33:29;7.80;;;5.28;;
4569;SDS011;2297;51.442;6.996;2023-04-01T08:35:58;8.80;;;6.00;;
4569;SDS011;2297;51.442;6.996;2023-04-01T08:38:30;7.78;;;5.55;;
4569;SDS011;2297;51.442;6.996;2023-04-01T08:41:00;7.53;;;5.70;;
4569;SDS011;2297;51.442;6.996;2023-04-01T08:43:35;7.68;;;5.18;;
4569;SDS011;2297;51.442;6.996;2023-04-01T08:46:34;6.65;;;4.88;;
4569;SDS011;2297;51.442;6.996;2023-04-01T08:52:01;5.07;;;4.03;;
4569;SDS011;2297;51.442;6.996;2023-04-01T08:57:43;8.05;;;5.63;;
4569;SDS011;2297;51.442;6.996;2023-04-01T09:00:21;7.78;;;5.30;;
4569;SDS011;2297;51.442;6.996;2023-04-01T09:03:18;7.80;;;5.50;;
4569;SDS011;2297;51.442;6.996;2023-04-01T09:06:13;9.43;;;5.93;;
4569;SDS011;2297;51.442;6.996;2023-04-01T09:12:03;9.60;;;5.75;;
4569;SDS011;2297;51.442;6.996;2023-04-01T09:17:50;9.48;;;5.70;;
4569;SDS011;2297;51.442;6.996;2023-04-01T09:20:41;8.60;;;6.10;;
4569;SDS011;2297;51.442;6.996;2023-04-01T09:23:26;8.45;;;6.00;;
4569;SDS011;2297;51.442;6.996;2023-04-01T09:29:10;8.70;;;6.00;;
4569;SDS011;2297;51.442;6.996;2023-04-01T09:31:54;8.93;;;5.75;;
4569;SDS011;2297;51.442;6.996;2023-04-01T09:34:44;9.27;;;5.57;;
4569;SDS011;2297;51.442;6.996;2023-04-01T09:37:29;8.27;;;5.88;;
4569;SDS011;2297;51.442;6.996;2023-04-01T09:40:09;8.38;;;6.00;;
4569;SDS011;2297;51.442;6.996;2023-04-01T09:42:42;9.35;;;5.93;;
4569;SDS011;2297;51.442;6.996;2023-04-01T09:45:16;8.65;;;5.50;;
4569;SDS011;2297;51.442;6.996;2023-04-01T09:47:56;8.00;;;5.65;;
4569;SDS011;2297;51.442;6.996;2023-04-01T09:50:33;10.70;;;6.95;;
4569;SDS011;2297;51.442;6.996;2023-04-01T09:53:13;9.68;;;7.00;;
4569;SDS011;2297;51.442;6.996;2023-04-01T10:08:51;9.73;;;6.90;;
4569;SDS011;2297;51.442;6.996;2023-04-01T10:18:15;11.30;;;6.95;;
4569;SDS011;2297;51.442;6.996;2023-04-01T10:21:02;9.23;;;6.78;;
4569;SDS011;2297;51.442;6.996;2023-04-01T10:23:54;9.30;;;6.88;;
4569;SDS011;2297;51.442;6.996;2023-04-01T10:45:31;7.60;;;5.95;;
4569;SDS011;2297;51.442;6.996;2023-04-01T10:48:24;9.00;;;6.03;;
4569;SDS011;2297;51.442;6.996;2023-04-01T10:51:30;9.88;;;6.47;;
4569;SDS011;2297;51.442;6.996;2023-04-01T10:54:30;7.88;;;5.88;;
4569;SDS011;2297;51.442;6.996;2023-04-01T10:57:12;13.25;;;8.63;;
4569;SDS011;2297;51.442;6.996;2023-04-01T11:03:14;10.95;;;7.35;;
4569;SDS011;2297;51.442;6.996;2023-04-01T11:06:17;11.00;;;7.03;;
4569;SDS011;2297;51.442;6.996;2023-04-01T11:09:14;12.38;;;7.57;;
4569;SDS011;2297;51.442;6.996;2023-04-01T11:12:18;11.20;;;7.18;;
4569;SDS011;2297;51.442;6.996;2023-04-01T11:24:31;11.85;;;7.75;;
4569;SDS011;2297;51.442;6.996;2023-04-01T11:27:16;12.02;;;7.80;;
4569;SDS011;2297;51.442;6.996;2023-04-01T11:30:02;11.20;;;8.00;;
4569;SDS011;2297;51.442;6.996;2023-04-01T11:32:42;10.50;;;7.22;;
4569;SDS011;2297;51.442;6.996;2023-04-01T11:38:24;10.05;;;7.07;;
4569;SDS011;2297;51.442;6.996;2023-04-01T11:41:08;11.77;;;7.15;;
4569;SDS011;2297;51.442;6.996;2023-04-01T11:43:49;13.35;;;7.32;;
4569;SDS011;2297;51.442;6.996;2023-04-01T11:46:30;11.88;;;7.30;;
4569;SDS011;2297;51.442;6.996;2023-04-01T11:49:07;12.52;;;7.35;;
4569;SDS011;2297;51.442;6.996;2023-04-01T11:52:04;11.20;;;6.70;;
4569;SDS011;2297;51.442;6.996;2023-04-01T11:54:50;9.88;;;7.18;;
4569;SDS011;2297;51.442;6.996;2023-04-01T11:57:35;10.95;;;7.07;;
4569;SDS011;2297;51.442;6.996;2023-04-01T12:03:18;10.90;;;7.28;;
4569;SDS011;2297;51.442;6.996;2023-04-01T12:05:58;9.63;;;6.93;;
4569;SDS011;2297;51.442;6.996;2023-04-01T12:08:33;8.75;;;6.50;;
4569;SDS011;2297;51.442;6.996;2023-04-01T12:11:10;8.77;;;6.57;;
4569;SDS011;2297;51.442;6.996;2023-04-01T12:13:45;10.52;;;6.85;;
4569;SDS011;2297;51.442;6.996;2023-04-01T12:16:28;9.80;;;6.80;;
4569;SDS011;2297;51.442;6.996;2023-04-01T12:19:09;15.90;;;8.90;;
4569;SDS011;2297;51.442;6.996;2023-04-01T12:21:45;13.23;;;8.23;;
4569;SDS011;2297;51.442;6.996;2023-04-01T12:27:14;13.98;;;8.63;;
4569;SDS011;2297;51.442;6.996;2023-04-01T12:33:16;13.20;;;8.75;;
4569;SDS011;2297;51.442;6.996;2023-04-01T12:35:55;12.55;;;8.88;;
4569;SDS011;2297;51.442;6.996;2023-04-01T12:38:31;12.50;;;8.38;;
4569;SDS011;2297;51.442;6.996;2023-04-01T12:41:09;11.95;;;8.65;;
4569;SDS011;2297;51.442;6.996;2023-04-01T12:43:52;12.80;;;8.25;;
4569;SDS011;2297;51.442;6.996;2023-04-01T12:46:32;12.57;;;8.60;;
4569;SDS011;2297;51.442;6.996;2023-04-01T12:49:19;13.68;;;8.65;;
4569;SDS011;2297;51.442;6.996;2023-04-01T12:52:03;11.20;;;8.10;;
4569;SDS011;2297;51.442;6.996;2023-04-01T12:57:37;10.07;;;6.97;;
4569;SDS011;2297;51.442;6.996;2023-04-01T13:00:23;10.38;;;7.28;;
4569;SDS011;2297;51.442;6.996;2023-04-01T13:03:06;9.93;;;6.28;;
4569;SDS011;2297;51.442;6.996;2023-04-01T13:08:42;13.02;;;7.03;;
4569;SDS011;2297;51.442;6.996;2023-04-01T13:11:18;9.70;;;6.68;;
4569;SDS011;2297;51.442;6.996;2023-04-01T13:13:57;9.90;;;6.55;;
4569;SDS011;2297;51.442;6.996;2023-04-01T13:16:41;10.00;;;6.18;;
4569;SDS011;2297;51.442;6.996;2023-04-01T13:19:13;9.00;;;6.18;;
4569;SDS011;2297;51.442;6.996;2023-04-01T13:21:51;10.75;;;6.15;;
4569;SDS011;2297;51.442;6.996;2023-04-01T13:24:28;11.40;;;6.40;;
4569;SDS011;2297;51.442;6.996;2023-04-01T13:27:04;8.38;;;5.47;;
4569;SDS011;2297;51.442;6.996;2023-04-01T13:29:36;9.68;;;6.10;;
4569;SDS011;2297;51.442;6.996;2023-04-01T13:32:18;9.75;;;5.65;;
4569;SDS011;2297;51.442;6.996;2023-04-01T13:34:59;10.15;;;6.47;;
4569;SDS011;2297;51.442;6.996;2023-04-01T13:37:42;8.82;;;5.32;;
4569;SDS011;2297;51.442;6.996;2023-04-01T13:40:26;14.77;;;7.78;;
4569;SDS011;2297;51.442;6.996;2023-04-01T13:43:02;9.40;;;5.82;;
4569;SDS011;2297;51.442;6.996;2023-04-01T13:45:36;11.00;;;6.37;;
4569;SDS011;2297;51.442;6.996;2023-04-01T13:48:18;10.48;;;6.22;;
4569;SDS011;2297;51.442;6.996;2023-04-01T13:51:12;8.68;;;5.35;;
4569;SDS011;2297;51.442;6.996;2023-04-01T13:54:01;9.25;;;5.03;;
4569;SDS011;2297;51.442;6.996;2023-04-01T13:56:53;7.70;;;5.10;;
4569;SDS011;2297;51.442;6.996;2023-04-01T14:02:40;8.25;;;5.35;;
4569;SDS011;2297;51.442;6.996;2023-04-01T14:05:22;8.60;;;5.25;;
4569;SDS011;2297;51.442;6.996;2023-04-01T14:08:00;8.10;;;5.63;;
4569;SDS011;2297;51.442;6.996;2023-04-01T14:10:36;8.93;;;5.80;;
4569;SDS011;2297;51.442;6.996;2023-04-01T14:13:12;8.52;;;5.72;;
4569;SDS011;2297;51.442;6.996;2023-04-01T14:15:53;12.07;;;6.20;;
4569;SDS011;2297;51.442;6.996;2023-04-01T14:18:33;9.85;;;6.47;;
4569;SDS011;2297;51.442;6.996;2023-04-01T14:21:12;10.38;;;6.68;;
4569;SDS011;2297;51.442;6.996;2023-04-01T14:29:28;9.98;;;6.00;;
4569;SDS011;2297;51.442;6.996;2023-04-01T14:40:55;12.27;;;6.63;;
4569;SDS011;2297;51.442;6.996;2023-04-01T14:43:41;11.82;;;7.35;;
4569;SDS011;2297;51.442;6.996;2023-04-01T14:46:29;9.85;;;6.88;;
4569;SDS011;2297;51.442;6.996;2023-04-01T14:49:04;11.43;;;7.32;;
4569;SDS011;2297;51.442;6.996;2023-04-01T14:51:40;10.38;;;7.32;;
4569;SDS011;2297;51.442;6.996;2023-04-01T14:54:08;12.27;;;7.82;;
4569;SDS011;2297;51.442;6.996;2023-04-01T14:56:48;11.90;;;7.85;;
4569;SDS011;2297;51.442;6.996;2023-04-01T14:59:17;11.77;;;7.28;;
4569;SDS011;2297;51.442;6.996;2023-04-01T15:01:57;10.60;;;6.80;;
4569;SDS011;2297;51.442;6.996;2023-04-01T15:04:41;9.60;;;6.68;;
4569;SDS011;2297;51.442;6.996;2023-04-01T15:07:21;10.00;;;7.00;;
4569;SDS011;2297;51.442;6.996;2023-04-01T15:10:06;12.70;;;6.90;;
4569;SDS011;2297;51.442;6.996;2023-04-01T15:12:46;11.75;;;6.95;;
4569;SDS011;2297;51.442;6.996;2023-04-01T15:15:27;9.68;;;6.85;;
4569;SDS011;2297;51.442;6.996;2023-04-01T15:18:06;9.27;;;6.30;;
4569;SDS011;2297;51.442;6.996;2023-04-01T15:20:47;11.15;;;7.53;;
4569;SDS011;2297;51.442;6.996;2023-04-01T15:23:54;11.30;;;6.90;;
4569;SDS011;2297;51.442;6.996;2023-04-01T15:26:42;10.80;;;6.72;;
4569;SDS011;2297;51.442;6.996;2023-04-01T15:29:24;12.90;;;7.55;;
4569;SDS011;2297;51.442;6.996;2023-04-01T15:32:13;10.45;;;6.63;;
4569;SDS011;2297;51.442;6.996;2023-04-01T15:34:48;9.13;;;6.03;;
4569;SDS011;2297;51.442;6.996;2023-04-01T15:37:22;7.13;;;5.10;;
4569;SDS011;2297;51.442;6.996;2023-04-01T15:40:02;7.15;;;5.20;;
4569;SDS011;2297;51.442;6.996;2023-04-01T15:42:47;8.40;;;4.75;;
4569;SDS011;2297;51.442;6.996;2023-04-01T15:45:35;7.93;;;4.88;;
4569;SDS011;2297;51.442;6.996;2023-04-01T15:51:05;6.82;;;4.45;;
4569;SDS011;2297;51.442;6.996;2023-04-01T15:56:41;6.00;;;4.30;;
4569;SDS011;2297;51.442;6.996;2023-04-01T15:59:20;5.53;;;4.07;;
4569;SDS011;2297;51.442;6.996;2023-04-01T16:01:59;6.03;;;4.50;;
4569;SDS011;2297;51.442;6.996;2023-04-01T16:04:47;10.68;;;5.80;;
4569;SDS011;2297;51.442;6.996;2023-04-01T16:07:23;8.90;;;5.40;;
4569;SDS011;2297;51.442;6.996;2023-04-01T16:10:09;6.80;;;4.97;;
4569;SDS011;2297;51.442;6.996;2023-04-01T16:12:52;6.60;;;4.70;;
4569;SDS011;2297;51.442;6.996;2023-04-01T16:15:28;6.05;;;4.60;;
4569;SDS011;2297;51.442;6.996;2023-04-01T16:18:09;6.25;;;4.85;;
4569;SDS011;2297;51.442;6.996;2023-04-01T16:20:46;9.40;;;6.43;;
4569;SDS011;2297;51.442;6.996;2023-04-01T16:23:22;7.97;;;5.03;;
4569;SDS011;2297;51.442;6.996;2023-04-01T16:25:53;6.43;;;4.78;;
4569;SDS011;2297;51.442;6.996;2023-04-01T16:28:32;7.20;;;5.32;;
4569;SDS011;2297;51.442;6.996;2023-04-01T16:31:05;8.48;;;5.63;;
4569;SDS011;2297;51.442;6.996;2023-04-01T16:33:38;6.82;;;5.32;;
4569;SDS011;2297;51.442;6.996;2023-04-01T16:36:13;8.45;;;5.80;;
4569;SDS011;2297;51.442;6.996;2023-04-01T16:38:50;8.65;;;6.00;;
4569;SDS011;2297;51.442;6.996;2023-04-01T16:41:26;9.43;;;6.05;;
4569;SDS011;2297;51.442;6.996;2023-04-01T16:46:46;8.32;;;5.75;;
4569;SDS011;2297;51.442;6.996;2023-04-01T16:49:23;7.63;;;5.80;;
4569;SDS011;2297;51.442;6.996;2023-04-01T16:51:57;8.27;;;5.60;;
4569;SDS011;2297;51.442;6.996;2023-04-01T16:54:42;9.48;;;6.07;;
4569;SDS011;2297;51.442;6.996;2023-04-01T16:59:46;9.35;;;6.22;;
4569;SDS011;2297;51.442;6.996;2023-04-01T17:02:21;11.18;;;6.13;;
4569;SDS011;2297;51.442;6.996;2023-04-01T17:07:46;7.45;;;5.85;;
4569;SDS011;2297;51.442;6.996;2023-04-01T17:10:31;7.85;;;5.63;;
4569;SDS011;2297;51.442;6.996;2023-04-01T17:13:20;8.85;;;6.53;;
4569;SDS011;2297;51.442;6.996;2023-04-01T17:16:15;8.00;;;5.28;;
4569;SDS011;2297;51.442;6.996;2023-04-01T17:18:56;9.65;;;6.38;;
4569;SDS011;2297;51.442;6.996;2023-04-01T17:21:34;9.00;;;6.35;;
4569;SDS011;2297;51.442;6.996;2023-04-01T17:24:34;10.07;;;6.72;;
4569;SDS011;2297;51.442;6.996;2023-04-01T17:27:16;11.35;;;7.50;;
4569;SDS011;2297;51.442;6.996;2023-04-01T17:29:59;45.03;;;21.25;;
4569;SDS011;2297;51.442;6.996;2023-04-01T17:32:38;11.18;;;7.63;;
4569;SDS011;2297;51.442;6.996;2023-04-01T17:35:16;9.00;;;6.72;;
4569;SDS011;2297;51.442;6.996;2023-04-01T17:37:53;10.50;;;7.50;;
4569;SDS011;2297;51.442;6.996;2023-04-01T17:40:33;12.07;;;8.13;;
4569;SDS011;2297;51.442;6.996;2023-04-01T17:43:12;10.85;;;7.80;;
4569;SDS011;2297;51.442;6.996;2023-04-01T17:45:49;14.05;;;8.93;;
4569;SDS011;2297;51.442;6.996;2023-04-01T17:48:22;12.45;;;8.93;;
4569;SDS011;2297;51.442;6.996;2023-04-01T17:51:01;15.75;;;8.63;;
4569;SDS011;2297;51.442;6.996;2023-04-01T17:53:41;15.20;;;9.35;;
4569;SDS011;2297;51.442;6.996;2023-04-01T17:56:15;12.02;;;8.70;;
4569;SDS011;2297;51.442;6.996;2023-04-01T17:58:54;14.48;;;9.48;;
4569;SDS011;2297;51.442;6.996;2023-04-01T18:04:17;17.45;;;10.57;;
4569;SDS011;2297;51.442;6.996;2023-04-01T18:07:11;13.27;;;8.93;;
4569;SDS011;2297;51.442;6.996;2023-04-01T18:10:08;11.57;;;8.35;;
4569;SDS011;2297;51.442;6.996;2023-04-01T18:12:49;12.38;;;8.38;;
4569;SDS011;2297;51.442;6.996;2023-04-01T18:15:35;12.50;;;8.82;;
4569;SDS011;2297;51.442;6.996;2023-04-01T18:18:11;12.63;;;8.52;;
4569;SDS011;2297;51.442;6.996;2023-04-01T18:20:58;13.68;;;9.05;;
4569;SDS011;2297;51.442;6.996;2023-04-01T18:23:35;13.60;;;9.25;;
4569;SDS011;2297;51.442;6.996;2023-04-01T18:26:05;14.25;;;9.02;;